Nong Khai, Thailand
Current Conditions -  °F | °C
As of 10:00 PM on Thursday 23 Oct 2014 (Local Time) from VLVT Reporting Station
Haze Haze  
Wind Chill: 26°   Ceiling: Unl
Heat Index: 28°   Visibility: 1.8mi
Dew Point: 22°   Wind: 5mph
Humidity: 78%   Direction: 360°N
Pressure: 29.88"   Gusts: NA
Location:  17.88°N, 102.74°E
Report Text: VLVT 231500Z 36004KT 3000 BR FEW050 26/22 Q1012 NOSIG
Loading
Personal Weather Stations






























Interactive Weather Map
Tropical Storm Tracking
New forecast layout! Learn more

10-Day Weather Forecast

Advertisements
Track Severe Weather on mobile